createdAt,value
2023-08-14T00:01:46.839Z,18.20
2023-08-14T00:05:13.951Z,18.30
2023-08-14T00:08:43.378Z,18.20
2023-08-14T00:12:06.536Z,18.00
2023-08-14T00:15:31.431Z,17.90
2023-08-14T00:18:58.589Z,17.80
2023-08-14T00:22:26.190Z,17.70
2023-08-14T00:25:53.270Z,17.80
2023-08-14T00:29:16.361Z,17.80
2023-08-14T00:32:41.352Z,17.70
2023-08-14T00:36:10.829Z,17.70
2023-08-14T00:39:37.912Z,17.60
2023-08-14T00:43:01.407Z,17.40
2023-08-14T00:46:24.700Z,17.50
2023-08-14T00:49:47.681Z,17.70
2023-08-14T00:53:15.260Z,17.80
2023-08-14T00:56:42.819Z,17.60
2023-08-14T01:00:06.766Z,17.70
2023-08-14T01:03:43.662Z,17.60
2023-08-14T01:07:08.974Z,17.50
2023-08-14T01:10:40.206Z,17.70
2023-08-14T01:14:03.745Z,17.50
2023-08-14T01:17:33.297Z,17.40
2023-08-14T01:21:00.462Z,17.40
2023-08-14T01:24:25.782Z,17.30
2023-08-14T01:27:53.145Z,17.40
2023-08-14T01:31:18.656Z,17.50
2023-08-14T01:34:45.617Z,17.60
2023-08-14T01:38:10.894Z,17.40
2023-08-14T01:41:49.662Z,17.30
2023-08-14T01:45:13.014Z,17.10
2023-08-14T01:48:37.971Z,16.60
2023-08-14T01:52:01.650Z,17.00
2023-08-14T01:55:35.493Z,17.00
2023-08-14T01:58:58.742Z,17.00
2023-08-14T02:02:26.075Z,16.90
2023-08-14T02:06:02.645Z,17.10
2023-08-14T02:09:30.112Z,17.00
2023-08-14T02:13:03.643Z,16.90
2023-08-14T02:16:27.201Z,17.00
2023-08-14T02:19:52.493Z,17.00
2023-08-14T02:23:21.622Z,17.00
2023-08-14T02:26:48.736Z,17.00
2023-08-14T02:30:14.378Z,16.80
2023-08-14T02:33:37.591Z,16.70
2023-08-14T02:37:05.302Z,16.70
2023-08-14T02:40:30.724Z,16.70
2023-08-14T02:44:09.545Z,16.70
2023-08-14T02:47:32.634Z,16.60
2023-08-14T02:50:56.399Z,16.60
2023-08-14T02:54:19.794Z,16.50
2023-08-14T02:57:52.712Z,16.40
2023-08-14T03:01:24.414Z,16.40
2023-08-14T03:04:47.482Z,16.40
2023-08-14T03:08:16.690Z,16.40
2023-08-14T03:11:42.195Z,16.50
2023-08-14T03:15:22.496Z,16.50
2023-08-14T03:18:45.422Z,16.50
2023-08-14T03:22:08.614Z,16.40
2023-08-14T03:25:33.468Z,16.60
2023-08-14T03:29:08.429Z,16.60
2023-08-14T03:32:37.356Z,16.50
2023-08-14T03:36:00.342Z,16.50
2023-08-14T03:39:23.539Z,16.50
2023-08-14T03:42:54.849Z,16.40
2023-08-14T03:46:27.787Z,16.50
2023-08-14T03:49:51.076Z,16.60
2023-08-14T03:53:14.451Z,16.50
2023-08-14T03:56:39.383Z,16.40
2023-08-14T04:00:06.576Z,16.10
2023-08-14T04:03:30.593Z,15.80
2023-08-14T04:06:54.184Z,15.90
2023-08-14T04:10:19.344Z,16.00
2023-08-14T04:13:42.450Z,16.20
2023-08-14T04:17:23.569Z,16.10
2023-08-14T04:20:46.699Z,16.30
2023-08-14T04:24:12.284Z,16.60
2023-08-14T04:27:42.139Z,16.60
2023-08-14T04:31:05.561Z,16.70
2023-08-14T04:34:30.492Z,16.50
2023-08-14T04:37:54.480Z,16.40
2023-08-14T04:41:21.706Z,16.50
2023-08-14T04:44:45.021Z,16.60
2023-08-14T04:48:21.438Z,16.80
2023-08-14T04:51:44.732Z,16.90
2023-08-14T04:55:11.755Z,17.10
2023-08-14T04:58:45.569Z,17.10
2023-08-14T05:02:09.311Z,17.20
2023-08-14T05:05:41.368Z,17.30
2023-08-14T05:09:20.060Z,17.50
2023-08-14T05:12:50.927Z,17.70
2023-08-14T05:16:16.426Z,17.80
2023-08-14T05:19:41.933Z,18.10
2023-08-14T05:23:05.314Z,18.20
2023-08-14T05:26:30.683Z,18.20
2023-08-14T05:30:07.979Z,18.20
2023-08-14T05:33:35.299Z,18.30
2023-08-14T05:37:13.109Z,18.40
2023-08-14T05:40:36.276Z,18.50
2023-08-14T05:44:05.596Z,18.80
2023-08-14T05:47:33.331Z,18.90
2023-08-14T05:51:02.908Z,18.90
2023-08-14T05:54:26.393Z,19.10
2023-08-14T05:57:53.752Z,19.10
2023-08-14T06:01:23.832Z,19.30
2023-08-14T06:04:59.243Z,19.40
2023-08-14T06:08:28.326Z,19.60
2023-08-14T06:11:51.560Z,19.60
2023-08-14T06:15:20.533Z,19.70
2023-08-14T06:18:43.610Z,19.80
2023-08-14T06:22:12.724Z,19.90
2023-08-14T06:25:41.977Z,20.10
2023-08-14T06:29:12.045Z,20.10
2023-08-14T06:32:43.814Z,20.20
2023-08-14T06:36:10.071Z,20.40
2023-08-14T06:39:48.662Z,20.40
2023-08-14T06:43:11.993Z,20.60
2023-08-14T06:46:36.829Z,20.80
2023-08-14T06:50:19.407Z,20.90
2023-08-14T06:53:48.349Z,21.10
2023-08-14T06:57:15.928Z,21.20
2023-08-14T07:00:41.598Z,21.30
2023-08-14T07:04:18.685Z,21.50
2023-08-14T07:07:42.289Z,22.50
2023-08-14T07:11:09.691Z,21.90
2023-08-14T07:14:33.090Z,22.00
2023-08-14T07:18:02.733Z,22.00
2023-08-14T07:21:26.241Z,22.10
2023-08-14T07:24:56.967Z,22.20
2023-08-14T07:28:28.182Z,22.40
2023-08-14T07:31:53.647Z,22.50
2023-08-14T07:35:20.698Z,22.50
2023-08-14T07:38:47.937Z,22.80
2023-08-14T07:42:26.747Z,22.90
2023-08-14T07:45:50.500Z,23.10
2023-08-14T07:49:16.067Z,23.30
2023-08-14T07:52:41.788Z,23.40
2023-08-14T07:56:17.746Z,23.50
2023-08-14T07:59:40.964Z,23.60
2023-08-14T08:03:08.040Z,23.80
2023-08-14T08:06:44.986Z,23.90
2023-08-14T08:10:10.947Z,24.10
2023-08-14T08:13:49.392Z,24.10
2023-08-14T08:17:12.381Z,24.30
2023-08-14T08:20:41.760Z,24.30
2023-08-14T08:24:08.854Z,24.40
2023-08-14T08:27:38.526Z,24.60
2023-08-14T08:31:01.677Z,24.80
2023-08-14T08:34:27.518Z,24.80
2023-08-14T08:38:03.761Z,24.80
2023-08-14T08:41:29.524Z,24.90
2023-08-14T08:45:00.860Z,25.00
2023-08-14T08:48:24.564Z,25.00
2023-08-14T08:51:53.913Z,25.20
2023-08-14T08:55:17.676Z,25.30
2023-08-14T08:58:52.048Z,25.50
2023-08-14T09:02:21.663Z,25.70
2023-08-14T09:05:47.305Z,25.80
2023-08-14T09:09:23.949Z,25.90
2023-08-14T09:12:49.307Z,26.00
2023-08-14T09:16:29.672Z,26.10
2023-08-14T09:19:52.748Z,26.30
2023-08-14T09:23:17.956Z,26.50
2023-08-14T09:26:41.431Z,26.60
2023-08-14T09:30:10.796Z,26.70
2023-08-14T09:33:34.027Z,26.80
2023-08-14T09:36:59.265Z,27.20
2023-08-14T09:40:35.894Z,27.10
2023-08-14T09:44:05.395Z,27.40
2023-08-14T09:47:34.786Z,27.30
2023-08-14T09:50:58.251Z,27.50
2023-08-14T09:54:27.455Z,27.50
2023-08-14T09:57:52.382Z,27.60
2023-08-14T10:01:28.847Z,27.70
2023-08-14T10:04:54.301Z,27.90
2023-08-14T10:08:23.223Z,28.00
2023-08-14T10:11:59.803Z,28.00
2023-08-14T10:15:24.825Z,28.20
2023-08-14T10:18:47.921Z,28.40
2023-08-14T10:22:11.011Z,28.50
2023-08-14T10:25:40.561Z,28.70
2023-08-14T10:29:06.182Z,28.90
2023-08-14T10:32:34.338Z,29.10
2023-08-14T10:35:59.632Z,29.30
2023-08-14T10:43:00.847Z,29.60
2023-08-14T10:46:29.771Z,29.70
2023-08-14T10:49:57.382Z,29.80
2023-08-14T10:53:20.696Z,29.80
2023-08-14T10:56:44.469Z,29.90
2023-08-14T11:00:10.440Z,30.00
2023-08-14T11:03:40.035Z,30.10
2023-08-14T11:07:11.876Z,30.30
2023-08-14T11:10:35.458Z,30.50
2023-08-14T11:14:01.373Z,30.50
2023-08-14T11:17:27.848Z,30.50
2023-08-14T11:21:01.325Z,30.80
2023-08-14T11:24:32.749Z,30.90
2023-08-14T11:27:58.776Z,31.30
2023-08-14T11:31:31.199Z,31.40
2023-08-14T11:35:03.883Z,31.80
2023-08-14T11:38:29.956Z,32.40
2023-08-14T11:41:53.384Z,32.90
2023-08-14T11:45:18.712Z,33.60
2023-08-14T11:48:42.858Z,33.80
2023-08-14T11:52:10.662Z,34.60
2023-08-14T11:55:36.253Z,35.90
2023-08-14T11:59:07.556Z,36.30
2023-08-14T12:02:35.494Z,37.30
2023-08-14T12:05:59.057Z,38.30
2023-08-14T12:09:24.570Z,39.10
2023-08-14T12:12:55.836Z,38.80
2023-08-14T12:16:24.801Z,38.80
2023-08-14T12:19:56.933Z,39.20
2023-08-14T12:23:24.242Z,39.90
2023-08-14T12:26:48.041Z,39.60
2023-08-14T12:30:15.140Z,40.50
2023-08-14T12:33:42.391Z,39.80
2023-08-14T12:37:10.483Z,40.40
2023-08-14T12:40:37.501Z,40.80
2023-08-14T12:44:00.867Z,42.60
2023-08-14T12:47:26.357Z,43.40
2023-08-14T12:50:52.203Z,44.80
2023-08-14T12:54:21.949Z,44.40
2023-08-14T12:57:48.624Z,45.40
2023-08-14T13:01:12.733Z,45.90
2023-08-14T13:08:12.506Z,47.80
2023-08-14T13:11:41.638Z,47.10
2023-08-14T13:15:06.539Z,47.00
2023-08-14T13:18:30.028Z,46.60
2023-08-14T13:21:55.131Z,47.50
2023-08-14T13:25:25.253Z,48.20
2023-08-14T13:28:52.860Z,47.90
2023-08-14T13:35:39.410Z,44.70
2023-08-14T13:39:02.992Z,43.10
2023-08-14T13:42:28.030Z,43.00
2023-08-14T13:45:51.134Z,45.10
2023-08-14T13:49:16.492Z,46.50
2023-08-14T13:52:52.994Z,48.40
2023-08-14T13:56:17.941Z,49.20
2023-08-14T13:59:47.182Z,48.70
2023-08-14T14:03:26.585Z,48.60
2023-08-14T14:06:58.007Z,46.70
2023-08-14T14:10:27.230Z,44.00
2023-08-14T14:14:08.770Z,44.30
2023-08-14T14:17:32.487Z,44.90
2023-08-14T14:20:55.677Z,47.50
2023-08-14T14:24:22.637Z,48.90
2023-08-14T14:27:48.443Z,49.60
2023-08-14T14:31:23.802Z,49.80
2023-08-14T14:35:03.446Z,50.10
2023-08-14T14:38:30.361Z,50.40
2023-08-14T14:41:53.993Z,51.30
2023-08-14T14:45:34.147Z,51.00
2023-08-14T14:49:06.609Z,51.30
2023-08-14T14:52:31.925Z,49.80
2023-08-14T14:56:00.280Z,47.70
2023-08-14T14:59:23.910Z,49.40
2023-08-14T15:02:51.458Z,49.60
2023-08-14T15:06:16.939Z,49.90
2023-08-14T15:09:42.314Z,50.30
2023-08-14T15:13:07.362Z,50.40
2023-08-14T15:16:35.915Z,49.70
2023-08-14T15:19:59.219Z,50.20
2023-08-14T15:23:26.308Z,49.60
2023-08-14T15:27:03.103Z,49.80
2023-08-14T15:30:28.358Z,49.30
2023-08-14T15:34:02.999Z,48.80
2023-08-14T15:37:26.748Z,48.50
2023-08-14T15:40:51.828Z,48.00
2023-08-14T15:44:21.346Z,47.30
2023-08-14T15:47:58.044Z,48.10
2023-08-14T15:51:23.125Z,46.80
2023-08-14T15:54:53.756Z,45.70
2023-08-14T15:58:26.015Z,46.40
2023-08-14T16:01:50.965Z,46.10
2023-08-14T16:05:20.664Z,45.60
2023-08-14T16:08:43.718Z,46.60
2023-08-14T16:12:09.396Z,46.90
2023-08-14T16:15:32.407Z,46.90
2023-08-14T16:19:02.433Z,46.30
2023-08-14T16:22:25.623Z,46.80
2023-08-14T16:25:49.153Z,46.20
2023-08-14T16:29:19.100Z,45.60
2023-08-14T16:32:47.456Z,44.80
2023-08-14T16:36:21.941Z,44.60
2023-08-14T16:43:00.326Z,43.80
2023-08-14T16:46:23.379Z,43.30
2023-08-14T16:49:52.644Z,42.20
2023-08-14T16:53:16.148Z,41.70
2023-08-14T16:56:40.058Z,41.40
2023-08-14T17:00:05.500Z,40.70
2023-08-14T17:03:30.628Z,39.50
2023-08-14T17:07:00.055Z,39.30
2023-08-14T17:10:23.372Z,39.50
2023-08-14T17:13:47.198Z,38.60
2023-08-14T17:17:15.983Z,38.40
2023-08-14T17:20:41.371Z,37.50
2023-08-14T17:24:21.895Z,37.50
2023-08-14T17:27:45.976Z,37.10
2023-08-14T17:31:11.071Z,36.30
2023-08-14T17:34:36.714Z,35.40
2023-08-14T17:38:04.118Z,33.90
2023-08-14T17:41:27.592Z,33.10
2023-08-14T17:44:52.513Z,32.20
2023-08-14T17:48:24.210Z,31.20
2023-08-14T17:51:47.389Z,30.60
2023-08-14T17:55:22.519Z,29.80
2023-08-14T17:58:45.887Z,29.40
2023-08-14T18:02:13.283Z,29.00
2023-08-14T18:05:40.806Z,28.60
2023-08-14T18:09:10.266Z,28.40
2023-08-14T18:12:33.579Z,28.20
2023-08-14T18:15:59.185Z,27.90
2023-08-14T18:19:30.040Z,27.60
2023-08-14T18:22:55.387Z,27.60
2023-08-14T18:26:25.318Z,27.20
2023-08-14T18:29:49.189Z,26.90
2023-08-14T18:33:20.742Z,26.70
2023-08-14T18:36:52.809Z,26.50
2023-08-14T18:44:48.774Z,26.20
2023-08-14T18:48:11.634Z,26.20
2023-08-14T18:51:41.071Z,26.00
2023-08-14T18:55:06.500Z,25.90
2023-08-14T18:58:34.131Z,26.90
2023-08-14T19:02:01.802Z,25.50
2023-08-14T19:05:33.437Z,25.40
2023-08-14T19:08:56.857Z,25.40
2023-08-14T19:12:25.827Z,25.30
2023-08-14T19:15:49.078Z,25.10
2023-08-14T19:19:15.193Z,25.10
2023-08-14T19:22:42.275Z,25.00
2023-08-14T19:26:14.980Z,25.00
2023-08-14T19:29:58.504Z,24.90
2023-08-14T19:33:23.258Z,24.90
2023-08-14T19:36:50.495Z,25.00
2023-08-14T19:40:24.403Z,24.70
2023-08-14T19:43:53.438Z,24.60
2023-08-14T19:47:30.087Z,24.50
2023-08-14T19:50:55.073Z,24.40
2023-08-14T19:54:26.273Z,24.40
2023-08-14T19:57:49.959Z,24.30
2023-08-14T20:01:15.684Z,24.20
2023-08-14T20:04:38.973Z,24.00
2023-08-14T20:08:06.237Z,23.90
2023-08-14T20:11:33.619Z,23.70
2023-08-14T20:15:00.753Z,23.60
2023-08-14T20:18:28.046Z,23.60
2023-08-14T20:21:53.448Z,23.50
2023-08-14T20:25:23.260Z,23.40
2023-08-14T20:28:52.479Z,23.30
2023-08-14T20:32:21.648Z,23.30
2023-08-14T20:35:45.179Z,23.20
2023-08-14T20:39:14.597Z,23.10
2023-08-14T20:42:42.150Z,23.10
2023-08-14T20:46:11.911Z,23.10
2023-08-14T20:49:36.937Z,23.10
2023-08-14T20:52:59.919Z,23.00
2023-08-14T20:56:30.164Z,22.90
2023-08-14T20:59:55.400Z,22.80
2023-08-14T21:03:25.043Z,22.80
2023-08-14T21:06:48.726Z,22.70
2023-08-14T21:10:15.797Z,22.60
2023-08-14T21:13:45.954Z,22.50
2023-08-14T21:17:37.152Z,22.40
2023-08-14T21:21:06.278Z,22.40
2023-08-14T21:24:36.202Z,22.30
2023-08-14T21:27:59.366Z,22.30
2023-08-14T21:31:28.934Z,22.20
2023-08-14T21:34:54.426Z,22.20
2023-08-14T21:38:17.621Z,22.10
2023-08-14T21:41:44.555Z,22.10
2023-08-14T21:45:07.709Z,22.10
2023-08-14T21:48:40.727Z,22.10
2023-08-14T21:52:07.365Z,22.00
2023-08-14T21:55:30.880Z,22.00
2023-08-14T21:58:58.307Z,21.90
2023-08-14T22:02:24.305Z,21.80
2023-08-14T22:05:53.736Z,21.80
2023-08-14T22:09:19.061Z,21.70
2023-08-14T22:12:42.615Z,21.60
2023-08-14T22:16:05.783Z,21.50
2023-08-14T22:19:32.971Z,21.50
2023-08-14T22:22:59.885Z,21.60
2023-08-14T22:26:23.074Z,21.40
2023-08-14T22:29:48.188Z,21.40
2023-08-14T22:33:17.283Z,21.40
2023-08-14T22:36:44.804Z,21.40
2023-08-14T22:40:08.412Z,21.30
2023-08-14T22:43:35.625Z,21.20
2023-08-14T22:47:07.343Z,21.10
2023-08-14T22:50:30.698Z,21.10
2023-08-14T22:54:01.756Z,21.10
2023-08-14T22:57:24.489Z,21.00
2023-08-14T23:00:49.730Z,20.90
2023-08-14T23:04:12.802Z,20.90
2023-08-14T23:07:44.405Z,20.90
2023-08-14T23:11:11.633Z,20.80
2023-08-14T23:14:38.575Z,20.60
2023-08-14T23:18:06.192Z,20.60
2023-08-14T23:21:31.783Z,20.60
2023-08-14T23:25:09.269Z,20.50
2023-08-14T23:28:32.139Z,20.50
2023-08-14T23:31:59.366Z,20.60
2023-08-14T23:35:22.610Z,20.50
2023-08-14T23:38:52.093Z,20.50
2023-08-14T23:42:15.131Z,20.40
2023-08-14T23:45:38.416Z,20.30
2023-08-14T23:49:04.083Z,20.20
2023-08-14T23:52:33.568Z,20.20
2023-08-14T23:56:14.285Z,20.20
2023-08-14T23:59:37.530Z,20.10
